Time;durP1;ratioP1;P1;durP2;ratioP2;P2;SDS_P1;SDS_P2;PMS_P1;PMS_P2;Temp;Humidity;BMP_temperature;BMP_pressure;BME280_temperature;BME280_humidity;BME280_pressure;Samples;Min_cycle;Max_cycle;Signal;HPM_P1;HPM_P2
2023/12/24 00:00:56;;;;;;;8.50;3.90;;;;;;;1.88;83.96;98520.44;674159;1272;142152;-82
2023/12/24 00:16:20;;;;;;;7.70;3.50;;;;;;;1.76;83.69;98539.28;674664;1275;138867;-79
2023/12/24 00:31:24;;;;;;;8.10;3.40;;;;;;;1.73;84.45;98558.79;675716;1275;138612;-79
2023/12/24 00:46:30;;;;;;;7.00;3.10;;;;;;;1.87;84.47;98568.37;673280;1276;139220;-78
2023/12/24 01:01:34;;;;;;;5.80;3.90;;;;;;;1.91;83.65;98591.89;673204;1271;139716;-79
2023/12/24 01:16:41;;;;;;;7.40;2.70;;;;;;;1.98;82.64;98616.34;676015;1272;139287;-79
2023/12/24 01:31:45;;;;;;;10.90;2.90;;;;;;;2.07;82.34;98640.34;677598;1272;139279;-79
2023/12/24 01:46:49;;;;;;;8.20;3.00;;;;;;;2.00;81.54;98655.51;676617;1269;140732;-79
2023/12/24 02:01:52;;;;;;;6.20;2.60;;;;;;;1.77;81.55;98675.73;676651;1274;138307;-79
2023/12/24 02:16:59;;;;;;;4.60;2.10;;;;;;;1.61;81.43;98683.14;678416;1268;138670;-79
2023/12/24 02:32:12;;;;;;;16.60;4.80;;;;;;;1.51;81.39;98696.45;678870;1268;138164;-79
2023/12/24 02:47:17;;;;;;;8.90;3.30;;;;;;;1.48;81.50;98698.42;673144;1266;138842;-81
2023/12/24 03:02:20;;;;;;;10.30;3.00;;;;;;;1.37;81.06;98706.80;676333;1266;139161;-79
2023/12/24 03:17:24;;;;;;;12.70;3.30;;;;;;;1.24;81.26;98719.31;675950;1268;140565;-80
2023/12/24 03:32:28;;;;;;;6.00;2.40;;;;;;;1.21;81.56;98739.70;678172;1267;140549;-79
2023/12/24 03:47:32;;;;;;;16.00;4.10;;;;;;;1.27;81.14;98754.98;678125;1267;139177;-79
2023/12/24 04:02:36;;;;;;;9.90;3.10;;;;;;;1.14;81.49;98766.89;678871;1263;139292;-80
2023/12/24 04:17:41;;;;;;;12.90;3.80;;;;;;;1.08;81.97;98776.46;680186;1267;139572;-79
2023/12/24 04:32:45;;;;;;;6.30;2.60;;;;;;;1.02;82.60;98777.27;680393;1268;139036;-79
2023/12/24 04:47:49;;;;;;;25.30;7.30;;;;;;;0.96;82.80;98791.11;678495;1269;140460;-81
2023/12/24 05:02:53;;;;;;;11.10;2.60;;;;;;;0.86;83.19;98803.86;675617;1267;139681;-78
2023/12/24 05:17:58;;;;;;;11.80;4.00;;;;;;;0.82;84.57;98816.52;678464;1267;139402;-81
2023/12/24 05:33:02;;;;;;;10.50;3.70;;;;;;;0.83;85.36;98819.44;681046;1266;140370;-78
2023/12/24 05:48:06;;;;;;;19.90;6.20;;;;;;;0.84;86.12;98834.48;677845;1266;140055;-81
2023/12/24 06:03:10;;;;;;;18.20;6.60;;;;;;;0.88;87.67;98845.59;675988;1266;138943;-81
2023/12/24 06:18:14;;;;;;;16.20;6.40;;;;;;;1.08;87.18;98851.02;680750;1269;139924;-81
2023/12/24 06:33:18;;;;;;;15.90;7.20;;;;;;;1.20;87.91;98864.14;679980;1266;140888;-81
2023/12/24 06:48:22;;;;;;;22.50;8.90;;;;;;;1.22;89.45;98869.48;674223;1267;139197;-81
2023/12/24 07:03:25;;;;;;;24.10;8.80;;;;;;;1.34;90.26;98866.91;678459;1267;139437;-81
2023/12/24 07:18:29;;;;;;;24.80;10.80;;;;;;;1.48;89.62;98870.56;676255;1267;139505;-81
2023/12/24 07:33:33;;;;;;;18.30;7.40;;;;;;;1.57;89.76;98881.14;679961;1276;140506;-81
2023/12/24 07:48:37;;;;;;;26.40;10.90;;;;;;;1.77;89.71;98875.02;676669;1266;139243;-82
2023/12/24 08:03:40;;;;;;;24.10;12.60;;;;;;;1.91;90.80;98888.61;678469;1263;143140;-81
2023/12/24 08:18:45;;;;;;;27.50;11.50;;;;;;;2.14;91.91;98896.59;679074;1267;139162;-81
2023/12/24 08:33:49;;;;;;;26.70;11.00;;;;;;;2.38;92.66;98891.85;678598;1262;139296;-82
2023/12/24 08:48:52;;;;;;;50.60;17.90;;;;;;;2.66;93.62;98894.39;677490;1264;140233;-81
2023/12/24 09:03:56;;;;;;;31.50;14.40;;;;;;;2.90;94.22;98889.39;680465;1264;139891;-82
2023/12/24 09:19:00;;;;;;;88.70;33.00;;;;;;;3.17;94.32;98888.20;677796;1266;139230;-81
2023/12/24 09:34:04;;;;;;;50.20;16.80;;;;;;;3.28;94.39;98882.30;676833;1267;138558;-80
2023/12/24 09:49:09;;;;;;;147.90;47.50;;;;;;;3.47;94.39;98880.28;679698;1262;138756;-79
2023/12/24 10:04:15;;;;;;;50.90;18.30;;;;;;;3.67;94.07;98863.27;679509;1270;140023;-80
2023/12/24 10:19:25;;;;;;;70.60;27.40;;;;;;;3.65;94.78;98844.55;679606;1262;139165;-80
2023/12/24 10:34:30;;;;;;;71.60;28.90;;;;;;;3.74;94.52;98831.39;679991;1262;138695;-81
2023/12/24 10:49:35;;;;;;;60.80;26.20;;;;;;;3.69;94.81;98818.65;679291;1265;139399;-83
2023/12/24 11:04:44;;;;;;;47.90;20.10;;;;;;;3.73;95.61;98800.54;678976;1267;140072;-80
2023/12/24 11:19:48;;;;;;;52.00;24.40;;;;;;;3.75;95.58;98775.96;680721;1263;139815;-81
2023/12/24 11:34:52;;;;;;;30.60;17.20;;;;;;;3.90;95.41;98770.40;680257;1265;139698;-82
2023/12/24 11:49:56;;;;;;;24.40;12.00;;;;;;;3.83;94.81;98772.35;677026;1265;140003;-81
2023/12/24 12:04:59;;;;;;;22.70;12.00;;;;;;;3.76;94.25;98763.24;672989;1265;139351;-81
2023/12/24 12:20:04;;;;;;;27.50;11.90;;;;;;;3.68;94.44;98755.10;678956;1265;139564;-81
2023/12/24 12:35:10;;;;;;;42.10;19.50;;;;;;;3.72;94.15;98746.60;675200;1263;140312;-80
2023/12/24 12:50:15;;;;;;;28.60;13.60;;;;;;;3.76;93.77;98744.96;679995;1263;138498;-83
2023/12/24 13:05:23;;;;;;;12.30;6.90;;;;;;;3.73;93.41;98739.14;678047;1266;139143;-81
2023/12/24 13:20:27;;;;;;;41.30;20.60;;;;;;;3.47;94.33;98733.66;680344;1262;139874;-81
2023/12/24 13:35:39;;;;;;;19.20;10.90;;;;;;;3.36;95.46;98714.88;680229;1262;138504;-82
2023/12/24 13:50:44;;;;;;;89.80;29.90;;;;;;;3.20;96.98;98682.33;679807;1262;139204;-81
2023/12/24 14:05:47;;;;;;;50.30;19.20;;;;;;;3.21;97.41;98656.14;679988;1262;139224;-80
2023/12/24 14:20:51;;;;;;;30.40;14.80;;;;;;;3.04;99.01;98640.79;679086;1263;139368;-80
2023/12/24 14:35:55;;;;;;;32.70;16.00;;;;;;;2.97;99.95;98626.17;681066;1265;139489;-82
2023/12/24 14:50:58;;;;;;;43.70;21.00;;;;;;;2.96;100.00;98573.58;681253;1266;139316;-81
2023/12/24 15:06:01;;;;;;;37.80;20.50;;;;;;;2.95;100.00;98544.45;679770;1265;139795;-81
2023/12/24 15:21:05;;;;;;;112.90;32.60;;;;;;;2.91;100.00;98510.98;678419;1265;139530;-80
2023/12/24 15:36:09;;;;;;;41.20;16.30;;;;;;;2.96;100.00;98470.15;680868;1265;140394;-80
2023/12/24 15:51:13;;;;;;;22.10;12.40;;;;;;;2.94;100.00;98444.23;678696;1266;139522;-81
2023/12/24 16:06:16;;;;;;;38.20;15.50;;;;;;;3.03;100.00;98418.96;674191;1278;138613;-81
2023/12/24 16:21:20;;;;;;;23.20;10.90;;;;;;;2.96;100.00;98370.54;679904;1270;139014;-80
2023/12/24 16:36:24;;;;;;;68.60;26.10;;;;;;;3.02;100.00;98336.48;677427;1266;139437;-81
2023/12/24 16:51:29;;;;;;;28.80;11.60;;;;;;;3.10;100.00;98309.69;675683;1267;139550;-82
2023/12/24 17:06:38;;;;;;;42.00;15.30;;;;;;;3.11;100.00;98284.08;672556;1265;139235;-81
2023/12/24 17:21:45;;;;;;;80.90;24.00;;;;;;;3.18;100.00;98242.86;676842;1266;139433;-81
2023/12/24 17:36:49;;;;;;;42.40;17.90;;;;;;;3.30;100.00;98208.20;675563;1265;139326;-81
2023/12/24 17:51:53;;;;;;;16.80;9.50;;;;;;;3.27;100.00;98186.92;670804;1265;139494;-81
2023/12/24 18:06:56;;;;;;;15.40;8.50;;;;;;;3.28;100.00;98171.29;676691;1265;138855;-81
2023/12/24 18:22:00;;;;;;;17.30;8.80;;;;;;;3.37;100.00;98117.58;675092;1275;139368;-82
2023/12/24 18:37:04;;;;;;;18.60;9.90;;;;;;;3.60;100.00;98099.88;678836;1259;139364;-80
2023/12/24 18:52:07;;;;;;;20.60;9.60;;;;;;;3.85;100.00;98064.14;679408;1262;139618;-82
2023/12/24 19:07:10;;;;;;;15.20;8.20;;;;;;;4.09;100.00;98021.50;681771;1262;139575;-80
2023/12/24 19:22:15;;;;;;;77.80;34.40;;;;;;;4.44;100.00;97976.64;679736;1262;139928;-82
2023/12/24 19:37:18;;;;;;;105.70;55.00;;;;;;;4.88;100.00;97948.89;680751;1262;139621;-81
2023/12/24 19:52:22;;;;;;;23.70;12.90;;;;;;;5.51;100.00;97919.36;681780;1262;141235;-81
2023/12/24 20:07:41;;;;;;;22.60;12.30;;;;;;;6.25;100.00;97891.29;676610;1263;138567;-82
2023/12/24 20:22:45;;;;;;;69.00;22.90;;;;;;;6.72;100.00;97862.41;675815;1262;139346;-82
2023/12/24 20:37:49;;;;;;;29.10;13.00;;;;;;;7.33;100.00;97846.24;680435;1262;138918;-81
2023/12/24 20:52:52;;;;;;;29.40;15.60;;;;;;;7.94;100.00;97804.89;677867;1265;138806;-81
2023/12/24 21:07:56;;;;;;;21.00;10.90;;;;;;;8.47;100.00;97774.00;678274;1262;139328;-81
2023/12/24 21:23:01;;;;;;;19.50;11.10;;;;;;;8.94;100.00;97763.83;676980;1263;139537;-81
2023/12/24 21:38:05;;;;;;;13.00;9.10;;;;;;;9.41;100.00;97727.04;680645;1263;139260;-81
2023/12/24 21:53:11;;;;;;;22.70;10.60;;;;;;;9.66;100.00;97684.39;681113;1262;139135;-81
2023/12/24 22:08:16;;;;;;;11.20;6.70;;;;;;;10.00;100.00;97637.15;679257;1263;139675;-82
2023/12/24 22:23:20;;;;;;;21.90;11.40;;;;;;;10.06;100.00;97603.43;679139;1263;139096;-82
2023/12/24 22:38:25;;;;;;;14.00;8.30;;;;;;;10.36;100.00;97571.84;681697;1264;139824;-81
2023/12/24 22:53:28;;;;;;;12.00;6.70;;;;;;;10.52;100.00;97569.52;680360;1264;139313;-82
2023/12/24 23:08:32;;;;;;;10.40;5.10;;;;;;;10.71;100.00;97571.27;680043;1271;139387;-82
2023/12/24 23:23:35;;;;;;;5.50;3.00;;;;;;;10.93;100.00;97577.20;681069;1266;140134;-83
2023/12/24 23:38:39;;;;;;;8.70;4.10;;;;;;;11.19;100.00;97542.82;680430;1264;139956;-83
2023/12/24 23:53:43;;;;;;;5.20;2.30;;;;;;;11.35;100.00;97583.27;679261;1261;139632;-81
